createdAt,value
2022-11-02T00:00:32.144Z,3.75
2022-11-02T00:03:00.239Z,3.67
2022-11-02T00:05:28.156Z,3.37
2022-11-02T00:07:56.788Z,3.60
2022-11-02T00:10:25.531Z,4.10
2022-11-02T00:12:54.018Z,3.58
2022-11-02T00:15:22.017Z,2.90
2022-11-02T00:17:54.663Z,3.90
2022-11-02T00:20:22.642Z,3.60
2022-11-02T00:22:54.226Z,3.60
2022-11-02T00:25:24.664Z,3.75
2022-11-02T00:27:52.455Z,3.70
2022-11-02T00:30:20.762Z,3.47
2022-11-02T00:32:48.382Z,3.05
2022-11-02T00:35:16.337Z,4.05
2022-11-02T00:37:43.967Z,3.53
2022-11-02T00:40:12.403Z,4.15
2022-11-02T00:42:40.047Z,3.78
2022-11-02T00:45:08.784Z,3.70
2022-11-02T00:47:36.558Z,3.87
2022-11-02T00:50:04.919Z,3.37
2022-11-02T00:52:32.762Z,3.85
2022-11-02T00:55:00.367Z,3.55
2022-11-02T00:57:27.962Z,3.12
2022-11-02T00:59:55.613Z,3.33
2022-11-02T01:02:23.430Z,3.30
2022-11-02T01:04:51.160Z,3.37
2022-11-02T01:07:18.769Z,2.90
2022-11-02T01:09:46.379Z,3.20
2022-11-02T01:12:13.990Z,3.30
2022-11-02T01:14:41.613Z,3.75
2022-11-02T01:17:09.218Z,3.78
2022-11-02T01:19:36.840Z,3.03
2022-11-02T01:22:04.876Z,3.25
2022-11-02T01:24:32.549Z,2.97
2022-11-02T01:27:00.179Z,3.08
2022-11-02T01:29:27.843Z,2.85
2022-11-02T01:31:55.742Z,3.25
2022-11-02T01:34:23.626Z,3.33
2022-11-02T01:36:51.492Z,2.70
2022-11-02T01:39:19.246Z,2.70
2022-11-02T01:41:51.381Z,3.37
2022-11-02T01:44:30.396Z,3.40
2022-11-02T01:47:20.716Z,3.30
2022-11-02T01:49:52.101Z,3.20
2022-11-02T01:52:29.243Z,3.03
2022-11-02T01:55:01.542Z,2.95
2022-11-02T01:57:30.119Z,3.40
2022-11-02T02:00:18.005Z,3.10
2022-11-02T02:03:17.906Z,3.00
2022-11-02T02:05:56.010Z,2.55
2022-11-02T02:08:26.327Z,2.90
2022-11-02T02:10:57.853Z,3.08
2022-11-02T02:13:28.040Z,2.90
2022-11-02T02:16:03.571Z,2.92
2022-11-02T02:18:37.166Z,2.80
2022-11-02T02:21:23.535Z,2.80
2022-11-02T02:23:56.678Z,2.70
2022-11-02T02:26:39.133Z,2.87
2022-11-02T02:29:19.972Z,2.97
2022-11-02T02:32:08.023Z,2.60
2022-11-02T02:34:39.116Z,3.22
2022-11-02T02:37:15.852Z,3.00
2022-11-02T02:39:52.699Z,2.40
2022-11-02T02:42:45.555Z,3.33
2022-11-02T02:45:21.549Z,3.08
2022-11-02T02:47:55.809Z,3.70
2022-11-02T02:50:28.703Z,3.10
2022-11-02T02:53:00.047Z,3.85
2022-11-02T02:55:36.924Z,3.42
2022-11-02T02:58:07.926Z,3.55
2022-11-02T03:00:37.294Z,3.03
2022-11-02T03:03:06.540Z,3.47
2022-11-02T03:05:38.416Z,3.67
2022-11-02T03:08:10.022Z,3.42
2022-11-02T03:11:01.123Z,3.53
2022-11-02T03:13:53.433Z,3.50
2022-11-02T03:16:42.494Z,4.15
2022-11-02T03:19:18.858Z,3.65
2022-11-02T03:21:51.140Z,3.70
2022-11-02T03:24:31.454Z,4.87
2022-11-02T03:27:24.236Z,4.65
2022-11-02T03:30:05.439Z,4.57
2022-11-02T03:33:01.676Z,4.30
2022-11-02T03:35:35.235Z,4.15
2022-11-02T03:38:10.585Z,3.78
2022-11-02T03:40:46.375Z,4.45
2022-11-02T03:43:16.492Z,4.12
2022-11-02T03:45:50.722Z,3.78
2022-11-02T03:48:19.904Z,3.70
2022-11-02T03:50:51.483Z,4.32
2022-11-02T03:53:38.913Z,3.78
2022-11-02T03:56:15.560Z,3.78
2022-11-02T03:58:43.305Z,4.12
2022-11-02T04:01:12.329Z,3.70
2022-11-02T04:03:44.334Z,3.22
2022-11-02T04:06:13.877Z,4.22
2022-11-02T04:08:44.972Z,3.60
2022-11-02T04:11:31.817Z,3.60
2022-11-02T04:14:17.935Z,3.95
2022-11-02T04:16:45.865Z,3.35
2022-11-02T04:19:28.610Z,3.60
2022-11-02T04:22:17.578Z,3.00
2022-11-02T04:25:03.956Z,3.60
2022-11-02T04:27:33.539Z,3.20
2022-11-02T04:30:01.165Z,3.37
2022-11-02T04:32:47.329Z,3.20
2022-11-02T04:35:15.184Z,2.33
2022-11-02T04:38:02.866Z,3.00
2022-11-02T04:40:30.766Z,3.17
2022-11-02T04:42:58.362Z,2.80
2022-11-02T04:45:25.974Z,2.80
2022-11-02T04:47:53.702Z,2.90
2022-11-02T04:50:21.308Z,2.70
2022-11-02T04:52:59.266Z,2.85
2022-11-02T04:55:27.587Z,2.67
2022-11-02T04:57:55.234Z,2.75
2022-11-02T05:00:23.960Z,2.72
2022-11-02T05:02:52.246Z,2.60
2022-11-02T05:05:20.073Z,2.72
2022-11-02T05:07:47.705Z,2.60
2022-11-02T05:10:15.475Z,3.35
2022-11-02T05:12:43.388Z,2.45
2022-11-02T05:15:11.089Z,2.53
2022-11-02T05:17:38.790Z,2.67
2022-11-02T05:20:06.815Z,2.72
2022-11-02T05:22:34.501Z,2.58
2022-11-02T05:25:02.240Z,2.10
2022-11-02T05:27:29.845Z,2.40
2022-11-02T05:29:57.477Z,2.55
2022-11-02T05:32:25.076Z,3.03
2022-11-02T05:34:52.725Z,2.28
2022-11-02T05:37:20.318Z,2.30
2022-11-02T05:39:50.411Z,2.08
2022-11-02T05:42:18.384Z,2.00
2022-11-02T05:44:45.961Z,2.53
2022-11-02T05:47:13.579Z,2.10
2022-11-02T05:49:41.199Z,2.85
2022-11-02T05:52:08.774Z,2.65
2022-11-02T05:54:36.388Z,2.62
2022-11-02T05:57:04.050Z,2.33
2022-11-02T05:59:31.665Z,2.30
2022-11-02T06:01:59.465Z,4.68
2022-11-02T06:04:27.096Z,5.60
2022-11-02T06:06:54.914Z,5.15
2022-11-02T06:09:22.520Z,5.57
2022-11-02T06:11:50.099Z,5.40
2022-11-02T06:14:17.731Z,4.82
2022-11-02T06:16:45.302Z,3.37
2022-11-02T06:21:48.304Z,2.78
2022-11-02T06:24:16.376Z,3.00
2022-11-02T06:26:44.164Z,3.05
2022-11-02T06:29:11.869Z,2.75
2022-11-02T06:31:39.527Z,3.35
2022-11-02T06:34:07.270Z,2.80
2022-11-02T06:36:34.863Z,2.37
2022-11-02T06:39:02.575Z,2.28
2022-11-02T06:41:30.182Z,2.70
2022-11-02T06:43:57.767Z,2.80
2022-11-02T06:46:25.399Z,3.08
2022-11-02T06:48:53.207Z,3.15
2022-11-02T06:51:20.832Z,2.60
2022-11-02T06:53:48.511Z,2.90
2022-11-02T06:56:16.261Z,2.72
2022-11-02T06:58:43.961Z,2.65
2022-11-02T07:01:11.894Z,2.55
2022-11-02T07:03:39.710Z,2.80
2022-11-02T07:06:12.904Z,2.95
2022-11-02T07:08:41.960Z,2.78
2022-11-02T07:11:09.590Z,2.70
2022-11-02T07:13:38.871Z,3.30
2022-11-02T07:16:06.742Z,2.60
2022-11-02T07:18:34.359Z,2.50
2022-11-02T07:21:02.765Z,2.92
2022-11-02T07:23:30.696Z,2.70
2022-11-02T07:25:58.288Z,3.05
2022-11-02T07:28:25.983Z,3.47
2022-11-02T07:30:56.005Z,3.08
2022-11-02T07:33:24.056Z,2.95
2022-11-02T07:35:51.723Z,3.30
2022-11-02T07:38:19.401Z,3.28
2022-11-02T07:40:50.543Z,3.22
2022-11-02T07:43:18.192Z,2.95
2022-11-02T07:45:45.918Z,3.30
2022-11-02T07:48:13.546Z,3.65
2022-11-02T07:50:41.285Z,2.97
2022-11-02T07:53:08.943Z,3.33
2022-11-02T07:55:36.799Z,2.37
2022-11-02T07:58:08.982Z,3.12
2022-11-02T08:00:39.228Z,2.70
2022-11-02T08:03:08.902Z,2.62
2022-11-02T08:05:38.956Z,2.55
2022-11-02T08:08:25.567Z,2.17
2022-11-02T08:10:54.083Z,2.45
2022-11-02T08:13:24.932Z,2.30
2022-11-02T08:15:55.917Z,1.90
2022-11-02T08:18:25.928Z,2.70
2022-11-02T08:20:56.474Z,2.15
2022-11-02T08:23:24.632Z,2.22
2022-11-02T08:25:53.625Z,2.37
2022-11-02T08:28:27.279Z,2.40
2022-11-02T08:30:55.008Z,2.50
2022-11-02T08:33:22.669Z,2.35
2022-11-02T08:35:50.553Z,2.33
2022-11-02T08:38:19.372Z,2.25
2022-11-02T08:40:47.091Z,2.28
2022-11-02T08:43:15.789Z,1.90
2022-11-02T08:46:14.362Z,2.20
2022-11-02T08:48:33.753Z,2.00
2022-11-02T08:51:01.478Z,2.03
2022-11-02T08:53:29.204Z,2.05
2022-11-02T08:56:00.453Z,2.17
2022-11-02T08:58:28.096Z,1.80
2022-11-02T09:00:56.079Z,1.92
2022-11-02T09:03:27.355Z,1.50
2022-11-02T09:06:00.363Z,1.58
2022-11-02T09:08:28.980Z,1.98
2022-11-02T09:11:02.937Z,1.67
2022-11-02T09:13:31.242Z,1.20
2022-11-02T09:16:00.457Z,1.30
2022-11-02T09:18:28.261Z,1.77
2022-11-02T09:20:55.984Z,1.52
2022-11-02T09:23:24.180Z,1.50
2022-11-02T09:25:51.837Z,1.40
2022-11-02T09:28:19.583Z,1.67
2022-11-02T09:30:47.466Z,2.10
2022-11-02T09:33:15.126Z,2.80
2022-11-02T09:35:47.956Z,1.85
2022-11-02T09:38:17.270Z,1.70
2022-11-02T09:41:00.031Z,2.08
2022-11-02T09:44:05.806Z,1.80
2022-11-02T09:46:40.286Z,1.60
2022-11-02T09:49:20.073Z,1.23
2022-11-02T09:51:57.251Z,2.00
2022-11-02T09:54:30.265Z,1.80
2022-11-02T09:57:02.896Z,1.83
2022-11-02T09:59:30.757Z,1.70
2022-11-02T10:02:20.170Z,1.75
2022-11-02T10:05:25.056Z,1.75
2022-11-02T10:08:10.621Z,2.10
2022-11-02T10:10:43.076Z,2.08
2022-11-02T10:13:35.525Z,1.70
2022-11-02T10:16:19.382Z,1.50
2022-11-02T10:18:51.376Z,1.58
2022-11-02T10:21:27.188Z,1.30
2022-11-02T10:24:01.121Z,1.20
2022-11-02T10:26:33.254Z,1.50
2022-11-02T10:29:05.611Z,1.30
2022-11-02T10:31:36.228Z,1.62
2022-11-02T10:34:29.682Z,1.73
2022-11-02T10:37:29.896Z,1.35
2022-11-02T10:40:15.545Z,1.20
2022-11-02T10:43:11.174Z,1.50
2022-11-02T10:46:22.020Z,1.27
2022-11-02T10:48:52.610Z,1.23
2022-11-02T10:51:22.507Z,1.48
2022-11-02T10:53:53.021Z,1.20
2022-11-02T10:56:23.324Z,1.10
2022-11-02T10:59:03.933Z,1.35
2022-11-02T11:01:33.652Z,1.95
2022-11-02T11:04:20.670Z,2.50
2022-11-02T11:06:48.343Z,1.60
2022-11-02T11:09:33.438Z,1.90
2022-11-02T11:12:06.812Z,1.70
2022-11-02T11:20:41.025Z,1.70
2022-11-02T11:23:10.470Z,1.70
2022-11-02T11:25:38.108Z,1.98
2022-11-02T11:28:23.962Z,1.35
2022-11-02T11:31:04.658Z,1.75
2022-11-02T11:33:34.207Z,1.52
2022-11-02T11:36:02.093Z,1.45
2022-11-02T11:38:29.879Z,1.52
2022-11-02T11:41:00.601Z,1.70
2022-11-02T11:43:36.055Z,1.20
2022-11-02T11:46:09.487Z,1.45
2022-11-02T11:48:46.229Z,1.27
2022-11-02T11:51:43.431Z,1.50
2022-11-02T11:54:29.693Z,1.80
2022-11-02T11:57:23.766Z,1.30
2022-11-02T11:59:54.006Z,1.17
2022-11-02T12:02:42.812Z,2.10
2022-11-02T12:05:18.168Z,1.48
2022-11-02T12:08:03.756Z,1.30
2022-11-02T12:10:57.644Z,1.48
2022-11-02T12:13:49.186Z,1.17
2022-11-02T12:16:34.743Z,1.40
2022-11-02T12:19:37.395Z,1.10
2022-11-02T12:22:16.971Z,1.12
2022-11-02T12:25:10.892Z,1.20
2022-11-02T12:28:05.002Z,1.25
2022-11-02T12:31:10.866Z,1.25
2022-11-02T12:34:07.183Z,1.30
2022-11-02T12:37:18.078Z,1.40
2022-11-02T12:40:15.008Z,1.10
2022-11-02T12:43:02.889Z,1.10
2022-11-02T12:45:42.223Z,1.00
2022-11-02T12:48:16.007Z,1.30
2022-11-02T12:51:02.291Z,1.27
2022-11-02T12:53:38.726Z,1.30
2022-11-02T12:56:13.022Z,1.27
2022-11-02T12:58:42.433Z,2.00
2022-11-02T13:01:32.029Z,1.62
2022-11-02T13:04:05.844Z,1.52
2022-11-02T13:06:40.772Z,1.17
2022-11-02T13:09:14.373Z,1.55
2022-11-02T13:11:51.668Z,1.83
2022-11-02T13:14:21.825Z,1.40
2022-11-02T13:17:06.674Z,1.90
2022-11-02T13:20:00.359Z,1.40
2022-11-02T13:22:51.214Z,1.05
2022-11-02T13:25:35.462Z,1.80
2022-11-02T13:28:10.394Z,1.23
2022-11-02T13:30:41.452Z,1.40
2022-11-02T13:33:35.833Z,1.65
2022-11-02T13:36:03.640Z,1.35
2022-11-02T13:38:37.801Z,1.27
2022-11-02T13:41:11.114Z,1.27
2022-11-02T13:44:16.044Z,1.37
2022-11-02T13:47:00.127Z,1.08
2022-11-02T13:49:32.528Z,1.20
2022-11-02T13:52:17.004Z,1.58
2022-11-02T13:54:52.222Z,1.30
2022-11-02T13:57:37.452Z,1.40
2022-11-02T14:00:09.475Z,1.25
2022-11-02T14:02:42.697Z,1.98
2022-11-02T14:05:21.963Z,1.35
2022-11-02T14:07:51.366Z,1.20
2022-11-02T14:10:20.514Z,1.85
2022-11-02T14:12:51.724Z,1.42
2022-11-02T14:15:19.345Z,1.30
2022-11-02T14:18:10.182Z,1.83
2022-11-02T14:20:39.697Z,1.65
2022-11-02T14:23:10.227Z,1.52
2022-11-02T14:25:46.574Z,1.33
2022-11-02T14:28:26.811Z,1.00
2022-11-02T14:31:06.687Z,1.35
2022-11-02T14:34:05.062Z,1.55
2022-11-02T14:36:51.241Z,1.25
2022-11-02T14:39:31.832Z,1.45
2022-11-02T14:42:09.593Z,1.30
2022-11-02T14:44:49.244Z,1.33
2022-11-02T14:47:19.906Z,1.40
2022-11-02T14:49:53.313Z,1.37
2022-11-02T14:52:31.640Z,1.20
2022-11-02T14:55:26.404Z,1.20
2022-11-02T14:58:18.553Z,1.42
2022-11-02T15:00:49.279Z,2.22
2022-11-02T15:03:26.275Z,1.17
2022-11-02T15:06:21.865Z,1.30
2022-11-02T15:08:51.331Z,1.55
2022-11-02T15:11:48.531Z,1.23
2022-11-02T15:14:34.647Z,1.65
2022-11-02T15:17:25.711Z,1.30
2022-11-02T15:19:59.020Z,1.80
2022-11-02T15:22:32.472Z,1.65
2022-11-02T15:25:05.208Z,1.33
2022-11-02T15:27:35.268Z,1.58
2022-11-02T15:30:04.430Z,1.10
2022-11-02T15:32:39.407Z,1.85
2022-11-02T15:35:14.333Z,1.50
2022-11-02T15:38:03.477Z,1.33
2022-11-02T15:40:46.329Z,1.62
2022-11-02T15:43:51.076Z,1.58
2022-11-02T15:46:32.240Z,2.03
2022-11-02T15:49:17.989Z,1.40
2022-11-02T15:52:06.240Z,1.67
2022-11-02T15:54:46.102Z,1.50
2022-11-02T15:57:49.971Z,1.37
2022-11-02T16:00:22.860Z,1.35
2022-11-02T16:02:53.066Z,1.42
2022-11-02T16:05:25.874Z,1.42
2022-11-02T16:08:11.788Z,1.70
2022-11-02T16:10:40.029Z,1.62
2022-11-02T16:13:20.621Z,1.60
2022-11-02T16:15:50.099Z,1.90
2022-11-02T16:18:38.151Z,1.85
2022-11-02T16:21:08.102Z,1.67
2022-11-02T16:23:38.367Z,2.10
2022-11-02T16:26:12.045Z,2.28
2022-11-02T16:28:40.093Z,2.58
2022-11-02T16:31:17.797Z,2.97
2022-11-02T16:33:57.384Z,2.60
2022-11-02T16:36:28.286Z,2.22
2022-11-02T16:38:58.916Z,2.22
2022-11-02T16:41:28.591Z,2.50
2022-11-02T16:43:58.524Z,2.70
2022-11-02T16:46:32.941Z,3.00
2022-11-02T16:49:17.861Z,2.70
2022-11-02T16:51:54.249Z,2.80
2022-11-02T16:54:40.516Z,2.87
2022-11-02T16:57:16.476Z,2.62
2022-11-02T16:59:50.543Z,3.50
2022-11-02T17:02:19.563Z,2.83
2022-11-02T17:04:48.556Z,2.70
2022-11-02T17:07:24.124Z,3.60
2022-11-02T17:09:58.515Z,3.17
2022-11-02T17:12:43.367Z,3.45
2022-11-02T17:15:23.165Z,3.85
2022-11-02T17:17:51.061Z,3.42
2022-11-02T17:20:25.249Z,3.70
2022-11-02T17:23:07.144Z,4.32
2022-11-02T17:25:41.635Z,4.35
2022-11-02T17:28:45.008Z,5.00
2022-11-02T17:31:24.522Z,4.78
2022-11-02T17:33:53.895Z,5.68
2022-11-02T17:36:23.009Z,5.28
2022-11-02T17:38:50.823Z,5.50
2022-11-02T17:41:38.520Z,7.12
2022-11-02T17:44:16.492Z,5.75
2022-11-02T17:46:46.140Z,6.62
2022-11-02T17:49:14.015Z,7.07
2022-11-02T17:51:41.945Z,6.75
2022-11-02T17:54:14.353Z,7.10
2022-11-02T17:56:42.626Z,6.53
2022-11-02T17:59:10.370Z,6.47
2022-11-02T18:01:38.252Z,5.62
2022-11-02T18:04:06.061Z,7.95
2022-11-02T18:06:33.708Z,8.60
2022-11-02T18:09:13.107Z,7.62
2022-11-02T18:11:41.278Z,6.78
2022-11-02T18:14:14.337Z,7.50
2022-11-02T18:16:41.968Z,7.00
2022-11-02T18:19:09.710Z,6.20
2022-11-02T18:21:37.584Z,6.90
2022-11-02T18:24:05.365Z,7.10
2022-11-02T18:26:33.032Z,7.20
2022-11-02T18:29:02.648Z,6.72
2022-11-02T18:31:30.306Z,6.95
2022-11-02T18:33:59.033Z,7.00
2022-11-02T18:36:26.765Z,6.57
2022-11-02T18:38:54.552Z,6.32
2022-11-02T18:41:31.840Z,6.80
2022-11-02T18:44:05.648Z,7.30
2022-11-02T18:46:35.630Z,6.60
2022-11-02T18:49:03.400Z,6.15
2022-11-02T18:51:31.027Z,7.05
2022-11-02T18:54:01.033Z,6.32
2022-11-02T18:56:29.144Z,7.05
2022-11-02T18:58:57.655Z,7.85
2022-11-02T19:01:26.280Z,9.88
2022-11-02T19:04:01.665Z,13.25
2022-11-02T19:06:50.562Z,10.35
2022-11-02T19:09:21.464Z,7.00
2022-11-02T19:11:54.741Z,9.52
2022-11-02T19:14:23.502Z,8.43
2022-11-02T19:16:51.243Z,7.82
2022-11-02T19:19:18.952Z,8.27
2022-11-02T19:21:46.594Z,8.48
2022-11-02T19:24:14.520Z,8.32
2022-11-02T19:26:42.482Z,9.32
2022-11-02T19:29:10.113Z,8.38
2022-11-02T19:31:37.896Z,8.38
2022-11-02T19:34:06.142Z,7.85
2022-11-02T19:36:34.027Z,7.12
2022-11-02T19:39:04.364Z,7.57
2022-11-02T19:41:32.468Z,6.68
2022-11-02T19:44:00.126Z,6.30
2022-11-02T19:46:28.492Z,6.70
2022-11-02T19:49:00.510Z,9.60
2022-11-02T19:51:30.747Z,7.72
2022-11-02T19:54:00.596Z,7.85
2022-11-02T19:56:30.157Z,7.20
2022-11-02T19:58:58.341Z,7.15
2022-11-02T20:01:28.796Z,7.95
2022-11-02T20:03:57.176Z,7.62
2022-11-02T20:06:27.441Z,9.23
2022-11-02T20:08:58.060Z,8.55
2022-11-02T20:11:29.891Z,8.20
2022-11-02T20:14:02.299Z,7.65
2022-11-02T20:16:30.718Z,6.05
2022-11-02T20:18:58.695Z,6.07
2022-11-02T20:21:34.212Z,6.03
2022-11-02T20:24:03.475Z,6.07
2022-11-02T20:26:33.915Z,6.07
2022-11-02T20:29:03.260Z,6.87
2022-11-02T20:31:33.421Z,5.93
2022-11-02T20:34:01.645Z,6.62
2022-11-02T20:36:30.052Z,6.25
2022-11-02T20:38:58.032Z,6.68
2022-11-02T20:41:27.156Z,5.95
2022-11-02T20:43:58.711Z,6.72
2022-11-02T20:46:37.554Z,5.45
2022-11-02T20:49:20.035Z,5.05
2022-11-02T20:51:54.000Z,6.22
2022-11-02T20:54:23.303Z,5.70
2022-11-02T20:56:51.542Z,5.65
2022-11-02T20:59:19.298Z,5.37
2022-11-02T21:01:47.044Z,5.05
2022-11-02T21:04:20.232Z,4.47
2022-11-02T21:06:52.938Z,4.32
2022-11-02T21:12:07.377Z,4.95
2022-11-02T21:14:35.042Z,4.78
2022-11-02T21:17:03.871Z,4.80
2022-11-02T21:19:31.766Z,5.20
2022-11-02T21:22:00.665Z,4.50
2022-11-02T21:24:29.850Z,5.37
2022-11-02T21:26:57.874Z,5.10
2022-11-02T21:29:25.905Z,5.70
2022-11-02T21:31:53.678Z,5.30
2022-11-02T21:34:21.418Z,5.55
2022-11-02T21:36:49.681Z,5.37
2022-11-02T21:39:17.327Z,5.72
2022-11-02T21:41:45.065Z,5.18
2022-11-02T21:44:13.111Z,6.62
2022-11-02T21:46:40.787Z,6.45
2022-11-02T21:49:08.608Z,5.93
2022-11-02T21:51:37.185Z,5.45
2022-11-02T21:54:05.042Z,5.43
2022-11-02T21:56:32.993Z,6.87
2022-11-02T21:59:00.889Z,5.53
2022-11-02T22:01:46.913Z,5.43
2022-11-02T22:04:26.387Z,5.65
2022-11-02T22:06:54.323Z,4.87
2022-11-02T22:09:22.456Z,5.62
2022-11-02T22:12:10.102Z,6.55
2022-11-02T22:14:42.515Z,7.32
2022-11-02T22:17:22.137Z,7.55
2022-11-02T22:19:58.418Z,7.30
2022-11-02T22:22:26.117Z,7.07
2022-11-02T22:24:53.745Z,6.12
2022-11-02T22:27:21.341Z,5.75
2022-11-02T22:29:48.967Z,5.40
2022-11-02T22:32:16.774Z,5.55
2022-11-02T22:34:44.882Z,4.97
2022-11-02T22:37:31.213Z,5.07
2022-11-02T22:39:58.821Z,4.60
2022-11-02T22:42:26.421Z,4.45
2022-11-02T22:44:56.225Z,4.53
2022-11-02T22:47:23.827Z,4.55
2022-11-02T22:49:51.489Z,4.70
2022-11-02T22:52:19.130Z,4.87
2022-11-02T22:54:46.784Z,4.95
2022-11-02T22:57:14.445Z,4.53
2022-11-02T22:59:42.047Z,4.57
2022-11-02T23:02:09.755Z,4.28
2022-11-02T23:04:37.382Z,4.47
2022-11-02T23:07:04.971Z,4.18
2022-11-02T23:09:32.584Z,4.37
2022-11-02T23:12:00.228Z,4.03
2022-11-02T23:14:27.889Z,4.30
2022-11-02T23:16:55.582Z,4.82
2022-11-02T23:19:29.017Z,4.45
2022-11-02T23:22:20.613Z,4.70
2022-11-02T23:25:08.158Z,6.25
2022-11-02T23:28:00.757Z,5.37
2022-11-02T23:30:55.373Z,5.95
2022-11-02T23:33:24.923Z,6.90
2022-11-02T23:36:10.892Z,5.97
2022-11-02T23:38:57.915Z,6.05
2022-11-02T23:41:26.250Z,5.57
2022-11-02T23:44:12.556Z,5.62
2022-11-02T23:46:40.358Z,5.18
2022-11-02T23:49:07.987Z,5.53
2022-11-02T23:51:54.278Z,5.90
2022-11-02T23:54:40.784Z,6.32
2022-11-02T23:57:08.500Z,6.53
2022-11-02T23:59:36.207Z,7.10
